Linwood, Minnesota
Current Conditions -  °F | °C
As of 10:15 PM on Saturday 20 Dec 2014 (Local Time) from KCBG Reporting Station
Overcast Overcast  
Wind Chill: 24°   Ceiling: 1300
Heat Index: 34°   Visibility: 10mi
Dew Point: 25°   Wind: 14mph
Humidity: 70%   Direction: 180°S
Pressure: 30.06"   Gusts: 21mph
Location:  45.3906°N, 93.2311°W
Report Text: KCBG 210415Z AUTO 18012G18KT 10SM OVC013 01/M04 A3006 RMK AO2
Loading
Personal Weather Stations






























Interactive Weather Map New forecast layout! Learn more

10-Day Weather Forecast

Advertisements
Track Severe Weather on mobile